Terminal Aerodrome Forecast
Issued by NWS

Home | Current Version | Previous Version | Text Only | Print | Product List | Glossary On
Versions: 1 2 3 4 5 6 7 8 9 10 11 12 13 14 15 16 17 18 19 20 21 22 23 24 25 26 27
000
FTUS42 KRAH 032331
TAFRWI
TAF
KRWI 032331Z 0400/0424 23008KT P6SM VCSH SCT035 BKN250
      TEMPO 0400/0402 27020G25KT 1 1/2SM TSRA SCT020 BKN035CB OVC080
     FM040400 30004KT P6SM VCSH SCT020 BKN050
     FM041500 29006KT P6SM SCT030=

USA.gov is the U.S. government's official web portal to all federal, state and local government web resources and services.